Shirahamamaru — JG4872 — position and weather

sailwx.info

Track history (hours):
 
Tides and Currents Weather Stations Pressure Air Temp Water Temp Dewpoint Dewpoint Depression Visibility Wind Speed Wind Dir Waves Ship Positions

Shirahamamaru

Last reported at 2017-Jul-23 10:30 UTC. Time now 2017-Jul-23 10:49 UTC.
Position N 35°10' E 139°49'.

Length 79 m; draft 3.2 m.

Type: Passenger vessel. MMSI: 431000239.

Date/timePositionNaut miles runAvg speedWind from/ knotsBaromVisibWave heightAir tempDewpointWater temp
2017-Jul-23 10:30N 35°10' E 139°49'0 0.0
2017-Jul-23 10:01N 35°10' E 139°49'4 7.5
2017-Jul-23 09:31N 35°12' E 139°45'2 4.2
2017-Jul-23 09:01N 35°13' E 139°43'4 8.7
2017-Jul-23 08:30N 35°11' E 139°48'1 2.9
2017-Jul-23 08:00N 35°10' E 139°49'5 9.5
2017-Jul-23 07:31N 35°13' E 139°44'1 2.5
2017-Jul-23 07:00N 35°13' E 139°43'4 8.8
2017-Jul-23 06:31N 35°11' E 139°47'2 3.1
2017-Jul-23 06:01N 35°10' E 139°49'5 9.5
2017-Jul-23 05:30N 35°13' E 139°44'1 2.2
2017-Jul-23 05:00N 35°13' E 139°43'3 6.9
2017-Jul-23 04:31N 35°12' E 139°47'3 5.2
2017-Jul-23 04:00N 35°10' E 139°49'4 7.9
2017-Jul-23 03:30N 35°12' E 139°45'2 3.8
2017-Jul-23 03:01N 35°13' E 139°43'4 8.3
2017-Jul-23 02:30N 35°11' E 139°47'2 3.5
2017-Jul-23 02:00N 35°10' E 139°49'5 9.6
2017-Jul-23 01:30N 35°13' E 139°44'1 2.2
2017-Jul-23 01:00N 35°13' E 139°43'4 8.5
2017-Jul-23 00:31N 35°11' E 139°47'2 3.3
2017-Jul-23 00:00N 35°10' E 139°49'5 9.5
2017-Jul-22 23:30N 35°13' E 139°44'1 2.3
2017-Jul-22 23:01N 35°13' E 139°43'3 6.4
2017-Jul-22 22:31N 35°12' E 139°46'3 5.3
2017-Jul-22 22:00N 35°10' E 139°49'5 9.5
2017-Jul-22 21:31N 35°13' E 139°44'1 2.4
2017-Jul-22 21:01N 35°13' E 139°43'0 0.0
2017-Jul-22 11:10N 35°13' E 139°43'1 6.3
2017-Jul-22 11:00N 35°13' E 139°44'5 9.9
2017-Jul-22 10:30N 35°10' E 139°49'0 0.0
2017-Jul-22 10:00N 35°10' E 139°49'4 7.7
2017-Jul-22 09:30N 35°12' E 139°45'2 4.1
2017-Jul-22 09:00N 35°13' E 139°43'4 8.8
2017-Jul-22 08:30N 35°11' E 139°48'2 3.0
2017-Jul-22 08:00N 35°10' E 139°49'5 9.2
2017-Jul-22 07:30N 35°13' E 139°44'1 2.7
2017-Jul-22 07:00N 35°13' E 139°43'4 8.7
2017-Jul-22 06:30N 35°11' E 139°48'2 3.1
2017-Jul-22 06:00N 35°10' E 139°49'5 9.7
2017-Jul-22 05:30N 35°13' E 139°44'1 2.1
2017-Jul-22 05:00N 35°13' E 139°43'3 6.5
2017-Jul-22 04:30N 35°12' E 139°47'3 5.3
2017-Jul-22 04:00N 35°10' E 139°49'4 7.6
2017-Jul-22 03:30N 35°12' E 139°45'2 4.2
2017-Jul-22 03:00N 35°13' E 139°43'4 8.6
2017-Jul-22 02:30N 35°11' E 139°48'2 3.1
2017-Jul-22 02:00N 35°10' E 139°49'5 9.7
2017-Jul-22 01:30N 35°13' E 139°44'1 2.2
2017-Jul-22 01:00N 35°13' E 139°43'4 8.8
2017-Jul-22 00:30N 35°11' E 139°48'2 3.2
2017-Jul-22 00:00N 35°10' E 139°49'510.0
2017-Jul-21 23:30N 35°13' E 139°44'1 1.8
2017-Jul-21 23:00N 35°13' E 139°43'4 7.5
2017-Jul-21 22:30N 35°11' E 139°47'2 4.4
2017-Jul-21 22:00N 35°10' E 139°49'5 9.2
2017-Jul-21 21:30N 35°13' E 139°44'1 2.6
2017-Jul-21 21:00N 35°13' E 139°43'0 0.0
2017-Jul-21 11:08N 35°13' E 139°43'1 5.4
2017-Jul-21 11:00N 35°13' E 139°44'510.4
2017-Jul-21 10:30N 35°10' E 139°49'0 0.0
2017-Jul-21 10:00N 35°10' E 139°49'4 7.6
2017-Jul-21 09:30N 35°12' E 139°45'2 3.8
2017-Jul-21 08:58N 35°13' E 139°43'4 9.6
2017-Jul-21 08:30N 35°11' E 139°48'2 3.2
2017-Jul-21 08:01N 35°10' E 139°49'5 9.2
2017-Jul-21 07:30N 35°13' E 139°44'1 2.4
2017-Jul-21 07:00N 35°13' E 139°43'4 9.0
2017-Jul-21 06:30N 35°11' E 139°48'1 2.8
2017-Jul-21 06:01N 35°10' E 139°49'510.0
2017-Jul-21 05:31N 35°13' E 139°44'1 1.8
2017-Jul-21 05:01N 35°13' E 139°43'3 6.9
2017-Jul-21 04:31N 35°12' E 139°47'2 4.8
2017-Jul-21 04:00N 35°10' E 139°49'4 8.1
2017-Jul-21 03:30N 35°13' E 139°45'2 3.6
2017-Jul-21 03:00N 35°13' E 139°43'4 8.9
2017-Jul-21 02:30N 35°11' E 139°48'1 2.9
2017-Jul-21 02:00N 35°10' E 139°49'510.5
2017-Jul-21 01:30N 35°13' E 139°44'1 1.3
2017-Jul-21 01:00N 35°13' E 139°43'4 9.1
2017-Jul-21 00:31N 35°11' E 139°48'1 2.9
2017-Jul-21 00:01N 35°10' E 139°49'510.2
2017-Jul-20 23:31N 35°13' E 139°44'1 1.6
2017-Jul-20 23:00N 35°13' E 139°43'3 6.8
2017-Jul-20 22:31N 35°12' E 139°47'2 5.0
2017-Jul-20 22:00N 35°10' E 139°49'5 9.7
2017-Jul-20 21:31N 35°13' E 139°44'1 2.0
2017-Jul-20 21:00N 35°13' E 139°43'0 0.0
2017-Jul-20 11:10N 35°13' E 139°43'1 3.1
2017-Jul-20 11:00N 35°13' E 139°44'510.8
2017-Jul-20 10:30N 35°10' E 139°49'0 0.0
2017-Jul-20 10:00N 35°10' E 139°49'4 8.0
2017-Jul-20 09:30N 35°13' E 139°45'2 3.8
2017-Jul-20 09:00N 35°13' E 139°43'4 8.6
2017-Jul-20 08:30N 35°11' E 139°48'2 3.1
2017-Jul-20 08:00N 35°10' E 139°49'5 9.7
2017-Jul-20 07:30N 35°13' E 139°44'1 2.2
2017-Jul-20 07:00N 35°13' E 139°43'4 8.8
2017-Jul-20 06:30N 35°11' E 139°48'2 3.2
2017-Jul-20 06:00N 35°10' E 139°49'510.0
2017-Jul-20 05:30N 35°13' E 139°44'1 1.8
2017-Jul-20 05:00N 35°13' E 139°43'3 7.0
2017-Jul-20 04:30N 35°12' E 139°47'3 5.0
2017-Jul-20 04:00N 35°10' E 139°49'4 7.9
2017-Jul-20 03:30N 35°13' E 139°45'2 3.9
2017-Jul-20 03:00N 35°13' E 139°43'4 8.7
2017-Jul-20 02:30N 35°11' E 139°47'2 3.1
2017-Jul-20 02:00N 35°10' E 139°49'5 9.5
2017-Jul-20 01:31N 35°13' E 139°44'1 2.3
2017-Jul-20 01:00N 35°13' E 139°43'4 9.0
2017-Jul-20 00:30N 35°11' E 139°48'1 3.0
2017-Jul-20 00:00N 35°10' E 139°49'5 9.8
2017-Jul-19 23:30N 35°13' E 139°44'1 2.0
2017-Jul-19 23:00N 35°13' E 139°43'3 7.1
2017-Jul-19 22:30N 35°12' E 139°47'2 4.9
2017-Jul-19 22:01N 35°10' E 139°49'5 9.6
2017-Jul-19 21:30N 35°13' E 139°44'1 2.1
2017-Jul-19 21:00N 35°13' E 139°43'0 0.0
2017-Jul-19 11:07N 35°13' E 139°43'0 3.4
2017-Jul-19 11:00N 35°13' E 139°43'611.1
2017-Jul-19 10:30N 35°10' E 139°49'0 0.0
2017-Jul-19 10:00N 35°10' E 139°49'4 7.5
2017-Jul-19 09:30N 35°12' E 139°45'2 4.2
2017-Jul-19 09:00N 35°13' E 139°43'4 8.9
2017-Jul-19 08:30N 35°11' E 139°48'2 3.0
2017-Jul-19 08:00N 35°10' E 139°49'5 9.4
2017-Jul-19 07:30N 35°13' E 139°44'1 2.1
2017-Jul-19 06:57N 35°13' E 139°43'4 9.6
2017-Jul-19 06:30N 35°11' E 139°48'2 3.1
2017-Jul-19 06:00N 35°10' E 139°49'5 9.6
2017-Jul-19 05:30N 35°13' E 139°44'1 2.3
2017-Jul-19 05:00N 35°13' E 139°43'3 6.7
2017-Jul-19 04:30N 35°12' E 139°47'3 5.1
2017-Jul-19 04:00N 35°10' E 139°49'4 7.6
2017-Jul-19 03:30N 35°12' E 139°45'2 4.1
2017-Jul-19 03:00N 35°13' E 139°43'4 8.8
2017-Jul-19 02:30N 35°11' E 139°48'2 3.1
2017-Jul-19 02:00N 35°10' E 139°49'5 9.7
2017-Jul-19 01:30N 35°13' E 139°44'1 2.1
2017-Jul-19 01:00N 35°13' E 139°43'4 8.5
2017-Jul-19 00:30N 35°11' E 139°47'2 3.2
2017-Jul-19 00:00N 35°10' E 139°49'5 9.7
2017-Jul-18 23:30N 35°13' E 139°44'1 2.1
2017-Jul-18 23:00N 35°13' E 139°43'3 6.5
2017-Jul-18 22:30N 35°12' E 139°47'3 5.3
2017-Jul-18 22:00N 35°10' E 139°49'5 9.5
2017-Jul-18 21:30N 35°13' E 139°44'1 2.3
2017-Jul-18 21:00N 35°13' E 139°43'0 0.0
2017-Jul-18 11:09N 35°13' E 139°43'0 2.7
2017-Jul-18 11:00N 35°13' E 139°43'611.2
2017-Jul-18 10:30N 35°10' E 139°49'0 0.0
2017-Jul-18 10:00N 35°10' E 139°49'4 7.5
2017-Jul-18 09:30N 35°12' E 139°45'2 4.1
2017-Jul-18 09:00N 35°13' E 139°43'4 8.8
2017-Jul-18 08:30N 35°11' E 139°48'2 3.2
2017-Jul-18 08:00N 35°10' E 139°49'5 9.1
2017-Jul-18 07:30N 35°13' E 139°44'1 2.6
2017-Jul-18 07:00N 35°13' E 139°43'4 8.7
2017-Jul-18 06:30N 35°11' E 139°47'2 3.1
2017-Jul-18 06:00N 35°10' E 139°49'5 9.7
2017-Jul-18 05:30N 35°13' E 139°44'1 2.1
2017-Jul-18 05:00N 35°13' E 139°43'3 6.9
2017-Jul-18 04:30N 35°12' E 139°47'2 4.9
2017-Jul-18 04:00N 35°10' E 139°49'4 7.7
2017-Jul-18 03:30N 35°12' E 139°45'2 4.1
2017-Jul-18 03:00N 35°13' E 139°43'4 8.9
2017-Jul-18 02:30N 35°11' E 139°48'1 2.8
2017-Jul-18 02:00N 35°10' E 139°49'5 9.3
2017-Jul-18 01:30N 35°13' E 139°44'1 2.4
2017-Jul-18 01:00N 35°13' E 139°43'4 9.1
2017-Jul-18 00:30N 35°11' E 139°48'1 2.9
2017-Jul-18 00:00N 35°10' E 139°49'5 9.9
2017-Jul-17 23:30N 35°13' E 139°44'1 1.9
2017-Jul-17 23:00N 35°13' E 139°43'4 7.1
2017-Jul-17 22:30N 35°12' E 139°47'2 4.8
2017-Jul-17 22:00N 35°10' E 139°49'5 9.2
2017-Jul-17 21:30N 35°13' E 139°44'1 2.6
2017-Jul-17 21:00N 35°13' E 139°43'0 0.0
2017-Jul-17 11:10N 35°13' E 139°43'0 2.8
2017-Jul-17 11:00N 35°13' E 139°43'611.0
2017-Jul-17 10:30N 35°10' E 139°49'0 0.0
2017-Jul-17 10:01N 35°10' E 139°49'4 7.8
2017-Jul-17 09:31N 35°12' E 139°45'2 3.8
2017-Jul-17 09:00N 35°13' E 139°43'4 9.2
2017-Jul-17 08:31N 35°11' E 139°48'1 2.8
2017-Jul-17 08:01N 35°10' E 139°49'5 9.5
2017-Jul-17 07:31N 35°13' E 139°44'1 2.3
2017-Jul-17 07:01N 35°13' E 139°43'5 9.3
2017-Jul-17 06:30N 35°11' E 139°48'1 2.4
2017-Jul-17 06:00N 35°10' E 139°49'510.0
2017-Jul-17 05:31N 35°13' E 139°44'1 1.9
2017-Jul-17 05:00N 35°13' E 139°43'4 7.4
2017-Jul-17 04:31N 35°12' E 139°47'2 4.5
2017-Jul-17 04:01N 35°10' E 139°49'4 8.2
2017-Jul-17 03:31N 35°13' E 139°45'2 3.6
2017-Jul-17 03:01N 35°13' E 139°43'4 8.5
2017-Jul-17 02:31N 35°11' E 139°47'2 3.2
2017-Jul-17 02:00N 35°10' E 139°49'510.3
2017-Jul-17 01:31N 35°13' E 139°44'1 1.6
2017-Jul-17 01:01N 35°13' E 139°43'4 8.8
2017-Jul-17 00:31N 35°11' E 139°48'1 2.9
2017-Jul-17 00:00N 35°10' E 139°49'510.6
2017-Jul-16 23:31N 35°13' E 139°44'1 1.3
2017-Jul-16 23:01N 35°13' E 139°43'3 6.7
2017-Jul-16 22:31N 35°12' E 139°47'3 5.2
2017-Jul-16 22:01N 35°10' E 139°49'5 9.6
2017-Jul-16 21:31N 35°13' E 139°44'1 2.2
2017-Jul-16 21:01N 35°13' E 139°43'0 0.0
2017-Jul-16 11:11N 35°13' E 139°43'1 6.1
2017-Jul-16 11:00N 35°13' E 139°44'5 9.8
2017-Jul-16 10:30N 35°10' E 139°49'0 0.0
2017-Jul-16 10:01N 35°10' E 139°49'4 8.0
2017-Jul-16 09:30N 35°13' E 139°45'2 3.7
2017-Jul-16 09:00N 35°13' E 139°43'510.6
2017-Jul-16 08:30N 35°11' E 139°48'1 1.3
2017-Jul-16 08:00N 35°10' E 139°49'510.0
2017-Jul-16 07:31N 35°13' E 139°44'1 2.0
2017-Jul-16 07:00N 35°13' E 139°43'4 8.9
2017-Jul-16 06:30N 35°11' E 139°48'2 3.1
2017-Jul-16 06:00N 35°10' E 139°49'510.2
2017-Jul-16 05:31N 35°13' E 139°44'1 1.8
2017-Jul-16 05:00N 35°13' E 139°43'3 7.0
2017-Jul-16 04:30N 35°12' E 139°47'2 4.9
2017-Jul-16 04:00N 35°10' E 139°49'4 8.5
2017-Jul-16 03:30N 35°13' E 139°45'2 3.2
2017-Jul-16 03:01N 35°13' E 139°43'5 9.1
2017-Jul-16 02:30N 35°11' E 139°48'1 2.6
2017-Jul-16 02:00N 35°10' E 139°49'5 9.9
2017-Jul-16 01:30N 35°13' E 139°44'1 1.8
2017-Jul-16 01:00N 35°13' E 139°43'4 8.8
2017-Jul-16 00:30N 35°11' E 139°48'2 3.1
2017-Jul-16 00:00N 35°10' E 139°49'5 9.6
2017-Jul-15 23:30N 35°13' E 139°44'1 2.2
2017-Jul-15 23:00N 35°13' E 139°43'3 7.1
2017-Jul-15 22:30N 35°12' E 139°47'2 4.9
2017-Jul-15 22:00N 35°10' E 139°49'510.0
2017-Jul-15 21:30N 35°13' E 139°44'1 1.8
2017-Jul-15 21:00N 35°13' E 139°43'0 0.0
2017-Jul-15 12:03N 35°13' E 139°43'0 0.0
2017-Jul-15 12:01N 35°13' E 139°43'1 1.2
2017-Jul-15 11:30N 35°13' E 139°44'0 0.4
2017-Jul-15 11:00N 35°13' E 139°43'0 0.0
2017-Jul-15 10:30N 35°13' E 139°43'0 0.1
2017-Jul-15 10:00N 35°13' E 139°43'1 2.4
2017-Jul-15 09:30N 35°12' E 139°44'2 3.1
2017-Jul-15 09:00N 35°13' E 139°43'510.0
2017-Jul-15 08:30N 35°11' E 139°48'1 1.7
2017-Jul-15 07:59N 35°10' E 139°49'510.2
2017-Jul-15 07:30N 35°13' E 139°44'1 2.0
2017-Jul-15 07:00N 35°13' E 139°43'4 8.9
2017-Jul-15 06:30N 35°11' E 139°48'2 3.1
2017-Jul-15 06:01N 35°10' E 139°49'510.1
2017-Jul-15 05:30N 35°13' E 139°44'1 1.6
2017-Jul-15 05:00N 35°13' E 139°43'3 6.8
2017-Jul-15 04:31N 35°12' E 139°47'2 5.0
2017-Jul-15 04:00N 35°10' E 139°49'4 8.3
2017-Jul-15 03:30N 35°13' E 139°45'2 3.4
2017-Jul-15 03:00N 35°13' E 139°43'4 9.0
2017-Jul-15 02:30N 35°11' E 139°48'1 2.8
2017-Jul-15 02:00N 35°10' E 139°49'510.3
2017-Jul-15 01:30N 35°13' E 139°44'1 1.5
2017-Jul-15 01:00N 35°13' E 139°43'4 8.8
2017-Jul-15 00:30N 35°11' E 139°48'2 3.2
2017-Jul-15 00:00N 35°10' E 139°49'5 9.8
2017-Jul-14 23:30N 35°13' E 139°44'1 2.2
2017-Jul-14 23:00N 35°13' E 139°43'3 6.8
2017-Jul-14 22:31N 35°12' E 139°47'3 5.0
2017-Jul-14 22:00N 35°10' E 139°49'5 9.5
2017-Jul-14 21:30N 35°13' E 139°44'1 2.3
2017-Jul-14 21:01N 35°13' E 139°43'0 0.0
2017-Jul-14 11:39N 35°13' E 139°43'0 1.7
2017-Jul-14 11:31N 35°13' E 139°43'611.4
2017-Jul-14 11:01N 35°10' E 139°49'4 7.4
2017-Jul-14 10:31N 35°12' E 139°45'2 3.9
2017-Jul-14 10:01N 35°13' E 139°43'510.6
2017-Jul-14 09:31N 35°11' E 139°48'1 1.0
2017-Jul-14 09:01N 35°10' E 139°49'611.1
2017-Jul-14 08:31N 35°13' E 139°43'0 0.4
2017-Jul-14 08:00N 35°13' E 139°44'510.5
2017-Jul-14 07:29N 35°10' E 139°49'0 0.3
2017-Jul-14 07:00N 35°10' E 139°49'611.6
2017-Jul-14 06:31N 35°13' E 139°43'0 0.5
2017-Jul-14 06:00N 35°13' E 139°43'0 0.0
2017-Jul-14 05:31N 35°13' E 139°43'2 5.0
2017-Jul-14 05:01N 35°12' E 139°46'3 6.7
2017-Jul-14 04:30N 35°10' E 139°49'0 0.0
2017-Jul-14 04:00N 35°10' E 139°49'3 6.3
2017-Jul-14 03:31N 35°12' E 139°46'3 5.2
2017-Jul-14 02:59N 35°13' E 139°43'0 0.0
2017-Jul-14 02:30N 35°13' E 139°43'0 0.2
2017-Jul-14 02:00N 35°13' E 139°43'510.9
2017-Jul-14 01:31N 35°11' E 139°49'0 0.9
2017-Jul-14 01:00N 35°10' E 139°49'611.8
2017-Jul-14 00:31N 35°13' E 139°43'0 0.5
2017-Jul-14 00:00N 35°13' E 139°43'3 7.1
2017-Jul-13 23:31N 35°12' E 139°47'2 4.9
2017-Jul-13 23:00N 35°10' E 139°49'5 9.2
2017-Jul-13 22:31N 35°13' E 139°44'1 2.6
2017-Jul-13 22:00N 35°13' E 139°43'4 9.1
2017-Jul-13 21:31N 35°11' E 139°48'1 3.0
2017-Jul-13 21:00N 35°10' E 139°49'0 0.0
2017-Jul-13 10:58N 35°10' E 139°49'4 9.8
2017-Jul-13 10:31N 35°13' E 139°45'  
Track history (hours):
 
Tides and Currents Weather Stations Pressure Air Temp Water Temp Dewpoint Dewpoint Depression Visibility Wind Speed Wind Dir Waves Ship Positions

Shirahamamaru

Last reported at 2017-Jul-23 10:30 UTC. Time now 2017-Jul-23 10:49 UTC.
Position N 35°10' E 139°49'.

Length 79 m; draft 3.2 m.

Type: Passenger vessel. MMSI: 431000239.

Date/timePositionNaut miles runAvg speedWind from/ knotsBaromVisibWave heightAir tempDewpointWater temp
2017-Jul-23 10:30N 35°10' E 139°49'0 0.0
2017-Jul-23 10:01N 35°10' E 139°49'4 7.5
2017-Jul-23 09:31N 35°12' E 139°45'2 4.2
2017-Jul-23 09:01N 35°13' E 139°43'4 8.7
2017-Jul-23 08:30N 35°11' E 139°48'1 2.9
2017-Jul-23 08:00N 35°10' E 139°49'5 9.5
2017-Jul-23 07:31N 35°13' E 139°44'1 2.5
2017-Jul-23 07:00N 35°13' E 139°43'4 8.8
2017-Jul-23 06:31N 35°11' E 139°47'2 3.1
2017-Jul-23 06:01N 35°10' E 139°49'5 9.5
2017-Jul-23 05:30N 35°13' E 139°44'1 2.2
2017-Jul-23 05:00N 35°13' E 139°43'3 6.9
2017-Jul-23 04:31N 35°12' E 139°47'3 5.2
2017-Jul-23 04:00N 35°10' E 139°49'4 7.9
2017-Jul-23 03:30N 35°12' E 139°45'2 3.8
2017-Jul-23 03:01N 35°13' E 139°43'4 8.3
2017-Jul-23 02:30N 35°11' E 139°47'2 3.5
2017-Jul-23 02:00N 35°10' E 139°49'5 9.6
2017-Jul-23 01:30N 35°13' E 139°44'1 2.2
2017-Jul-23 01:00N 35°13' E 139°43'4 8.5
2017-Jul-23 00:31N 35°11' E 139°47'2 3.3
2017-Jul-23 00:00N 35°10' E 139°49'5 9.5
2017-Jul-22 23:30N 35°13' E 139°44'1 2.3
2017-Jul-22 23:01N 35°13' E 139°43'3 6.4
2017-Jul-22 22:31N 35°12' E 139°46'3 5.3
2017-Jul-22 22:00N 35°10' E 139°49'5 9.5
2017-Jul-22 21:31N 35°13' E 139°44'1 2.4
2017-Jul-22 21:01N 35°13' E 139°43'0 0.0
2017-Jul-22 11:10N 35°13' E 139°43'1 6.3
2017-Jul-22 11:00N 35°13' E 139°44'5 9.9
2017-Jul-22 10:30N 35°10' E 139°49'0 0.0
2017-Jul-22 10:00N 35°10' E 139°49'4 7.7
2017-Jul-22 09:30N 35°12' E 139°45'2 4.1
2017-Jul-22 09:00N 35°13' E 139°43'4 8.8
2017-Jul-22 08:30N 35°11' E 139°48'2 3.0
2017-Jul-22 08:00N 35°10' E 139°49'5 9.2
2017-Jul-22 07:30N 35°13' E 139°44'1 2.7
2017-Jul-22 07:00N 35°13' E 139°43'4 8.7
2017-Jul-22 06:30N 35°11' E 139°48'2 3.1
2017-Jul-22 06:00N 35°10' E 139°49'5 9.7
2017-Jul-22 05:30N 35°13' E 139°44'1 2.1
2017-Jul-22 05:00N 35°13' E 139°43'3 6.5
2017-Jul-22 04:30N 35°12' E 139°47'3 5.3
2017-Jul-22 04:00N 35°10' E 139°49'4 7.6
2017-Jul-22 03:30N 35°12' E 139°45'2 4.2
2017-Jul-22 03:00N 35°13' E 139°43'4 8.6
2017-Jul-22 02:30N 35°11' E 139°48'2 3.1
2017-Jul-22 02:00N 35°10' E 139°49'5 9.7
2017-Jul-22 01:30N 35°13' E 139°44'1 2.2
2017-Jul-22 01:00N 35°13' E 139°43'4 8.8
2017-Jul-22 00:30N 35°11' E 139°48'2 3.2
2017-Jul-22 00:00N 35°10' E 139°49'510.0
2017-Jul-21 23:30N 35°13' E 139°44'1 1.8
2017-Jul-21 23:00N 35°13' E 139°43'4 7.5
2017-Jul-21 22:30N 35°11' E 139°47'2 4.4
2017-Jul-21 22:00N 35°10' E 139°49'5 9.2
2017-Jul-21 21:30N 35°13' E 139°44'1 2.6
2017-Jul-21 21:00N 35°13' E 139°43'0 0.0
2017-Jul-21 11:08N 35°13' E 139°43'1 5.4
2017-Jul-21 11:00N 35°13' E 139°44'510.4
2017-Jul-21 10:30N 35°10' E 139°49'0 0.0
2017-Jul-21 10:00N 35°10' E 139°49'4 7.6
2017-Jul-21 09:30N 35°12' E 139°45'2 3.8
2017-Jul-21 08:58N 35°13' E 139°43'4 9.6
2017-Jul-21 08:30N 35°11' E 139°48'2 3.2
2017-Jul-21 08:01N 35°10' E 139°49'5 9.2
2017-Jul-21 07:30N 35°13' E 139°44'1 2.4
2017-Jul-21 07:00N 35°13' E 139°43'4 9.0
2017-Jul-21 06:30N 35°11' E 139°48'1 2.8
2017-Jul-21 06:01N 35°10' E 139°49'510.0
2017-Jul-21 05:31N 35°13' E 139°44'1 1.8
2017-Jul-21 05:01N 35°13' E 139°43'3 6.9
2017-Jul-21 04:31N 35°12' E 139°47'2 4.8
2017-Jul-21 04:00N 35°10' E 139°49'4 8.1
2017-Jul-21 03:30N 35°13' E 139°45'2 3.6
2017-Jul-21 03:00N 35°13' E 139°43'4 8.9
2017-Jul-21 02:30N 35°11' E 139°48'1 2.9
2017-Jul-21 02:00N 35°10' E 139°49'510.5
2017-Jul-21 01:30N 35°13' E 139°44'1 1.3
2017-Jul-21 01:00N 35°13' E 139°43'4 9.1
2017-Jul-21 00:31N 35°11' E 139°48'1 2.9
2017-Jul-21 00:01N 35°10' E 139°49'510.2
2017-Jul-20 23:31N 35°13' E 139°44'1 1.6
2017-Jul-20 23:00N 35°13' E 139°43'3 6.8
2017-Jul-20 22:31N 35°12' E 139°47'2 5.0
2017-Jul-20 22:00N 35°10' E 139°49'5 9.7
2017-Jul-20 21:31N 35°13' E 139°44'1 2.0
2017-Jul-20 21:00N 35°13' E 139°43'0 0.0
2017-Jul-20 11:10N 35°13' E 139°43'1 3.1
2017-Jul-20 11:00N 35°13' E 139°44'510.8
2017-Jul-20 10:30N 35°10' E 139°49'0 0.0
2017-Jul-20 10:00N 35°10' E 139°49'4 8.0
2017-Jul-20 09:30N 35°13' E 139°45'2 3.8
2017-Jul-20 09:00N 35°13' E 139°43'4 8.6
2017-Jul-20 08:30N 35°11' E 139°48'2 3.1
2017-Jul-20 08:00N 35°10' E 139°49'5 9.7
2017-Jul-20 07:30N 35°13' E 139°44'1 2.2
2017-Jul-20 07:00N 35°13' E 139°43'4 8.8
2017-Jul-20 06:30N 35°11' E 139°48'2 3.2
2017-Jul-20 06:00N 35°10' E 139°49'510.0
2017-Jul-20 05:30N 35°13' E 139°44'1 1.8
2017-Jul-20 05:00N 35°13' E 139°43'3 7.0
2017-Jul-20 04:30N 35°12' E 139°47'3 5.0
2017-Jul-20 04:00N 35°10' E 139°49'4 7.9
2017-Jul-20 03:30N 35°13' E 139°45'2 3.9
2017-Jul-20 03:00N 35°13' E 139°43'4 8.7
2017-Jul-20 02:30N 35°11' E 139°47'2 3.1
2017-Jul-20 02:00N 35°10' E 139°49'5 9.5
2017-Jul-20 01:31N 35°13' E 139°44'1 2.3
2017-Jul-20 01:00N 35°13' E 139°43'4 9.0
2017-Jul-20 00:30N 35°11' E 139°48'1 3.0
2017-Jul-20 00:00N 35°10' E 139°49'5 9.8
2017-Jul-19 23:30N 35°13' E 139°44'1 2.0
2017-Jul-19 23:00N 35°13' E 139°43'3 7.1
2017-Jul-19 22:30N 35°12' E 139°47'2 4.9
2017-Jul-19 22:01N 35°10' E 139°49'5 9.6
2017-Jul-19 21:30N 35°13' E 139°44'1 2.1
2017-Jul-19 21:00N 35°13' E 139°43'0 0.0
2017-Jul-19 11:07N 35°13' E 139°43'0 3.4
2017-Jul-19 11:00N 35°13' E 139°43'611.1
2017-Jul-19 10:30N 35°10' E 139°49'0 0.0
2017-Jul-19 10:00N 35°10' E 139°49'4 7.5
2017-Jul-19 09:30N 35°12' E 139°45'2 4.2
2017-Jul-19 09:00N 35°13' E 139°43'4 8.9
2017-Jul-19 08:30N 35°11' E 139°48'2 3.0
2017-Jul-19 08:00N 35°10' E 139°49'5 9.4
2017-Jul-19 07:30N 35°13' E 139°44'1 2.1
2017-Jul-19 06:57N 35°13' E 139°43'4 9.6
2017-Jul-19 06:30N 35°11' E 139°48'2 3.1
2017-Jul-19 06:00N 35°10' E 139°49'5 9.6
2017-Jul-19 05:30N 35°13' E 139°44'1 2.3
2017-Jul-19 05:00N 35°13' E 139°43'3 6.7
2017-Jul-19 04:30N 35°12' E 139°47'3 5.1
2017-Jul-19 04:00N 35°10' E 139°49'4 7.6
2017-Jul-19 03:30N 35°12' E 139°45'2 4.1
2017-Jul-19 03:00N 35°13' E 139°43'4 8.8
2017-Jul-19 02:30N 35°11' E 139°48'2 3.1
2017-Jul-19 02:00N 35°10' E 139°49'5 9.7
2017-Jul-19 01:30N 35°13' E 139°44'1 2.1
2017-Jul-19 01:00N 35°13' E 139°43'4 8.5
2017-Jul-19 00:30N 35°11' E 139°47'2 3.2
2017-Jul-19 00:00N 35°10' E 139°49'5 9.7
2017-Jul-18 23:30N 35°13' E 139°44'1 2.1
2017-Jul-18 23:00N 35°13' E 139°43'3 6.5
2017-Jul-18 22:30N 35°12' E 139°47'3 5.3
2017-Jul-18 22:00N 35°10' E 139°49'5 9.5
2017-Jul-18 21:30N 35°13' E 139°44'1 2.3
2017-Jul-18 21:00N 35°13' E 139°43'0 0.0
2017-Jul-18 11:09N 35°13' E 139°43'0 2.7
2017-Jul-18 11:00N 35°13' E 139°43'611.2
2017-Jul-18 10:30N 35°10' E 139°49'0 0.0
2017-Jul-18 10:00N 35°10' E 139°49'4 7.5
2017-Jul-18 09:30N 35°12' E 139°45'2 4.1
2017-Jul-18 09:00N 35°13' E 139°43'4 8.8
2017-Jul-18 08:30N 35°11' E 139°48'2 3.2
2017-Jul-18 08:00N 35°10' E 139°49'5 9.1
2017-Jul-18 07:30N 35°13' E 139°44'1 2.6
2017-Jul-18 07:00N 35°13' E 139°43'4 8.7
2017-Jul-18 06:30N 35°11' E 139°47'2 3.1
2017-Jul-18 06:00N 35°10' E 139°49'5 9.7
2017-Jul-18 05:30N 35°13' E 139°44'1 2.1
2017-Jul-18 05:00N 35°13' E 139°43'3 6.9
2017-Jul-18 04:30N 35°12' E 139°47'2 4.9
2017-Jul-18 04:00N 35°10' E 139°49'4 7.7
2017-Jul-18 03:30N 35°12' E 139°45'2 4.1
2017-Jul-18 03:00N 35°13' E 139°43'4 8.9
2017-Jul-18 02:30N 35°11' E 139°48'1 2.8
2017-Jul-18 02:00N 35°10' E 139°49'5 9.3
2017-Jul-18 01:30N 35°13' E 139°44'1 2.4
2017-Jul-18 01:00N 35°13' E 139°43'4 9.1
2017-Jul-18 00:30N 35°11' E 139°48'1 2.9
2017-Jul-18 00:00N 35°10' E 139°49'5 9.9
2017-Jul-17 23:30N 35°13' E 139°44'1 1.9
2017-Jul-17 23:00N 35°13' E 139°43'4 7.1
2017-Jul-17 22:30N 35°12' E 139°47'2 4.8
2017-Jul-17 22:00N 35°10' E 139°49'5 9.2
2017-Jul-17 21:30N 35°13' E 139°44'1 2.6
2017-Jul-17 21:00N 35°13' E 139°43'0 0.0
2017-Jul-17 11:10N 35°13' E 139°43'0 2.8
2017-Jul-17 11:00N 35°13' E 139°43'611.0
2017-Jul-17 10:30N 35°10' E 139°49'0 0.0
2017-Jul-17 10:01N 35°10' E 139°49'4 7.8
2017-Jul-17 09:31N 35°12' E 139°45'2 3.8
2017-Jul-17 09:00N 35°13' E 139°43'4 9.2
2017-Jul-17 08:31N 35°11' E 139°48'1 2.8
2017-Jul-17 08:01N 35°10' E 139°49'5 9.5
2017-Jul-17 07:31N 35°13' E 139°44'1 2.3
2017-Jul-17 07:01N 35°13' E 139°43'5 9.3
2017-Jul-17 06:30N 35°11' E 139°48'1 2.4
2017-Jul-17 06:00N 35°10' E 139°49'510.0
2017-Jul-17 05:31N 35°13' E 139°44'1 1.9
2017-Jul-17 05:00N 35°13' E 139°43'4 7.4
2017-Jul-17 04:31N 35°12' E 139°47'2 4.5
2017-Jul-17 04:01N 35°10' E 139°49'4 8.2
2017-Jul-17 03:31N 35°13' E 139°45'2 3.6
2017-Jul-17 03:01N 35°13' E 139°43'4 8.5
2017-Jul-17 02:31N 35°11' E 139°47'2 3.2
2017-Jul-17 02:00N 35°10' E 139°49'510.3
2017-Jul-17 01:31N 35°13' E 139°44'1 1.6
2017-Jul-17 01:01N 35°13' E 139°43'4 8.8
2017-Jul-17 00:31N 35°11' E 139°48'1 2.9
2017-Jul-17 00:00N 35°10' E 139°49'510.6
2017-Jul-16 23:31N 35°13' E 139°44'1 1.3
2017-Jul-16 23:01N 35°13' E 139°43'3 6.7
2017-Jul-16 22:31N 35°12' E 139°47'3 5.2
2017-Jul-16 22:01N 35°10' E 139°49'5 9.6
2017-Jul-16 21:31N 35°13' E 139°44'1 2.2
2017-Jul-16 21:01N 35°13' E 139°43'0 0.0
2017-Jul-16 11:11N 35°13' E 139°43'1 6.1
2017-Jul-16 11:00N 35°13' E 139°44'5 9.8
2017-Jul-16 10:30N 35°10' E 139°49'0 0.0
2017-Jul-16 10:01N 35°10' E 139°49'4 8.0
2017-Jul-16 09:30N 35°13' E 139°45'2 3.7
2017-Jul-16 09:00N 35°13' E 139°43'510.6
2017-Jul-16 08:30N 35°11' E 139°48'1 1.3
2017-Jul-16 08:00N 35°10' E 139°49'510.0
2017-Jul-16 07:31N 35°13' E 139°44'1 2.0
2017-Jul-16 07:00N 35°13' E 139°43'4 8.9
2017-Jul-16 06:30N 35°11' E 139°48'2 3.1
2017-Jul-16 06:00N 35°10' E 139°49'510.2
2017-Jul-16 05:31N 35°13' E 139°44'1 1.8
2017-Jul-16 05:00N 35°13' E 139°43'3 7.0
2017-Jul-16 04:30N 35°12' E 139°47'2 4.9
2017-Jul-16 04:00N 35°10' E 139°49'4 8.5
2017-Jul-16 03:30N 35°13' E 139°45'2 3.2
2017-Jul-16 03:01N 35°13' E 139°43'5 9.1
2017-Jul-16 02:30N 35°11' E 139°48'1 2.6
2017-Jul-16 02:00N 35°10' E 139°49'5 9.9
2017-Jul-16 01:30N 35°13' E 139°44'1 1.8
2017-Jul-16 01:00N 35°13' E 139°43'4 8.8
2017-Jul-16 00:30N 35°11' E 139°48'2 3.1
2017-Jul-16 00:00N 35°10' E 139°49'5 9.6
2017-Jul-15 23:30N 35°13' E 139°44'1 2.2
2017-Jul-15 23:00N 35°13' E 139°43'3 7.1
2017-Jul-15 22:30N 35°12' E 139°47'2 4.9
2017-Jul-15 22:00N 35°10' E 139°49'510.0
2017-Jul-15 21:30N 35°13' E 139°44'1 1.8
2017-Jul-15 21:00N 35°13' E 139°43'0 0.0
2017-Jul-15 12:03N 35°13' E 139°43'0 0.0
2017-Jul-15 12:01N 35°13' E 139°43'1 1.2
2017-Jul-15 11:30N 35°13' E 139°44'0 0.4
2017-Jul-15 11:00N 35°13' E 139°43'0 0.0
2017-Jul-15 10:30N 35°13' E 139°43'0 0.1
2017-Jul-15 10:00N 35°13' E 139°43'1 2.4
2017-Jul-15 09:30N 35°12' E 139°44'2 3.1
2017-Jul-15 09:00N 35°13' E 139°43'510.0
2017-Jul-15 08:30N 35°11' E 139°48'1 1.7
2017-Jul-15 07:59N 35°10' E 139°49'510.2
2017-Jul-15 07:30N 35°13' E 139°44'1 2.0
2017-Jul-15 07:00N 35°13' E 139°43'4 8.9
2017-Jul-15 06:30N 35°11' E 139°48'2 3.1
2017-Jul-15 06:01N 35°10' E 139°49'510.1
2017-Jul-15 05:30N 35°13' E 139°44'1 1.6
2017-Jul-15 05:00N 35°13' E 139°43'3 6.8
2017-Jul-15 04:31N 35°12' E 139°47'2 5.0
2017-Jul-15 04:00N 35°10' E 139°49'4 8.3
2017-Jul-15 03:30N 35°13' E 139°45'2 3.4
2017-Jul-15 03:00N 35°13' E 139°43'4 9.0
2017-Jul-15 02:30N 35°11' E 139°48'1 2.8
2017-Jul-15 02:00N 35°10' E 139°49'510.3
2017-Jul-15 01:30N 35°13' E 139°44'1 1.5
2017-Jul-15 01:00N 35°13' E 139°43'4 8.8
2017-Jul-15 00:30N 35°11' E 139°48'2 3.2
2017-Jul-15 00:00N 35°10' E 139°49'5 9.8
2017-Jul-14 23:30N 35°13' E 139°44'1 2.2
2017-Jul-14 23:00N 35°13' E 139°43'3 6.8
2017-Jul-14 22:31N 35°12' E 139°47'3 5.0
2017-Jul-14 22:00N 35°10' E 139°49'5 9.5
2017-Jul-14 21:30N 35°13' E 139°44'1 2.3
2017-Jul-14 21:01N 35°13' E 139°43'0 0.0
2017-Jul-14 11:39N 35°13' E 139°43'0 1.7
2017-Jul-14 11:31N 35°13' E 139°43'611.4
2017-Jul-14 11:01N 35°10' E 139°49'4 7.4
2017-Jul-14 10:31N 35°12' E 139°45'2 3.9
2017-Jul-14 10:01N 35°13' E 139°43'510.6
2017-Jul-14 09:31N 35°11' E 139°48'1 1.0
2017-Jul-14 09:01N 35°10' E 139°49'611.1
2017-Jul-14 08:31N 35°13' E 139°43'0 0.4
2017-Jul-14 08:00N 35°13' E 139°44'510.5
2017-Jul-14 07:29N 35°10' E 139°49'0 0.3
2017-Jul-14 07:00N 35°10' E 139°49'611.6
2017-Jul-14 06:31N 35°13' E 139°43'0 0.5
2017-Jul-14 06:00N 35°13' E 139°43'0 0.0
2017-Jul-14 05:31N 35°13' E 139°43'2 5.0
2017-Jul-14 05:01N 35°12' E 139°46'3 6.7
2017-Jul-14 04:30N 35°10' E 139°49'0 0.0
2017-Jul-14 04:00N 35°10' E 139°49'3 6.3
2017-Jul-14 03:31N 35°12' E 139°46'3 5.2
2017-Jul-14 02:59N 35°13' E 139°43'0 0.0
2017-Jul-14 02:30N 35°13' E 139°43'0 0.2
2017-Jul-14 02:00N 35°13' E 139°43'510.9
2017-Jul-14 01:31N 35°11' E 139°49'0 0.9
2017-Jul-14 01:00N 35°10' E 139°49'611.8
2017-Jul-14 00:31N 35°13' E 139°43'0 0.5
2017-Jul-14 00:00N 35°13' E 139°43'3 7.1
2017-Jul-13 23:31N 35°12' E 139°47'2 4.9
2017-Jul-13 23:00N 35°10' E 139°49'5 9.2
2017-Jul-13 22:31N 35°13' E 139°44'1 2.6
2017-Jul-13 22:00N 35°13' E 139°43'4 9.1
2017-Jul-13 21:31N 35°11' E 139°48'1 3.0
2017-Jul-13 21:00N 35°10' E 139°49'0 0.0
2017-Jul-13 10:58N 35°10' E 139°49'4 9.8
2017-Jul-13 10:31N 35°13' E 139°45'  

Dump ship's entire track history